Time;durP1;ratioP1;P1;durP2;ratioP2;P2;SDS_P1;SDS_P2;PMS_P1;PMS_P2;Temp;Humidity;BMP_temperature;BMP_pressure;BME280_temperature;BME280_humidity;BME280_pressure;Samples;Min_cycle;Max_cycle;Signal;HPM_P1;HPM_P2
2023/06/17 00:00:46;;;;;;;;;;;;;;;23.12;50.49;100876.75;4984375;28;4066;-71
2023/06/17 00:03:13;;;;;;;;;;;;;;;23.12;50.56;100873.88;4982787;28;4181;-71
2023/06/17 00:05:39;;;;;;;;;;;;;;;23.11;50.44;100870.25;4985800;28;4286;-71
2023/06/17 00:08:06;;;;;;;;;;;;;;;23.12;50.11;100871.00;4982761;28;4097;-71
2023/06/17 00:10:32;;;;;;;;;;;;;;;23.11;50.20;100870.25;4983783;28;4272;-71
2023/06/17 00:13:00;;;;;;;;;;;;;;;23.09;50.61;100860.75;4984608;28;4163;-72
2023/06/17 00:15:28;;;;;;;;;;;;;;;23.10;50.23;100873.81;4988299;28;4187;-71
2023/06/17 00:17:56;;;;;;;;;;;;;;;23.10;50.44;100862.25;4985886;28;4188;-72
2023/06/17 00:20:23;;;;;;;;;;;;;;;23.10;50.52;100868.03;4982454;28;4145;-71
2023/06/17 00:22:50;;;;;;;;;;;;;;;23.09;50.24;100857.88;4982586;28;4127;-71
2023/06/17 00:25:16;;;;;;;;;;;;;;;23.09;50.52;100860.75;4982591;28;4052;-71
2023/06/17 00:27:43;;;;;;;;;;;;;;;23.09;50.52;100858.63;4982507;28;4004;-72
2023/06/17 00:30:10;;;;;;;;;;;;;;;23.08;50.52;100857.13;4996995;28;4228;-71
2023/06/17 00:32:36;;;;;;;;;;;;;;;23.09;50.25;100849.19;4985023;28;3952;-71
2023/06/17 00:35:03;;;;;;;;;;;;;;;23.08;50.24;100853.50;4980238;28;4217;-71
2023/06/17 00:37:30;;;;;;;;;;;;;;;23.07;50.23;100858.56;4983385;28;4186;-71
2023/06/17 00:39:56;;;;;;;;;;;;;;;23.06;50.33;100839.72;4987245;28;4135;-71
2023/06/17 00:42:23;;;;;;;;;;;;;;;23.06;50.53;100844.78;4980190;28;4142;-71
2023/06/17 00:44:49;;;;;;;;;;;;;;;23.04;50.28;100848.31;4981045;28;4761;-71
2023/06/17 00:47:16;;;;;;;;;;;;;;;23.05;50.60;100843.31;4981197;28;4136;-71
2023/06/17 00:49:42;;;;;;;;;;;;;;;23.06;50.43;100844.78;4997067;28;4144;-71
2023/06/17 00:52:09;;;;;;;;;;;;;;;23.06;50.53;100839.00;4983675;28;4230;-72
2023/06/17 00:54:55;;;;;;;;;;;;;;;23.05;50.50;100849.06;4978457;28;4208;-71
2023/06/17 00:57:23;;;;;;;;;;;;;;;23.05;50.30;100849.06;4994422;28;4352;-71
2023/06/17 00:59:50;;;;;;;;;;;;;;;23.04;50.32;100847.59;4998192;28;4927;-71
2023/06/17 01:02:17;;;;;;;;;;;;;;;23.02;50.31;100845.38;4984096;28;4235;-71
2023/06/17 01:04:46;;;;;;;;;;;;;;;23.03;50.34;100857.66;4981073;28;4102;-71
2023/06/17 01:07:16;;;;;;;;;;;;;;;23.03;50.43;100849.00;4983008;28;4114;-71
2023/06/17 01:09:45;;;;;;;;;;;;;;;23.02;50.16;100850.41;4985285;28;4300;-71
2023/06/17 01:12:12;;;;;;;;;;;;;;;23.02;50.19;100851.16;4982243;28;4139;-71
2023/06/17 01:14:40;;;;;;;;;;;;;;;23.02;50.64;100851.16;4995086;28;4090;-71
2023/06/17 01:17:10;;;;;;;;;;;;;;;23.03;50.39;100852.63;4984718;28;4334;-71
2023/06/17 01:19:36;;;;;;;;;;;;;;;23.02;50.34;100847.50;4982578;28;4158;-71
2023/06/17 01:22:06;;;;;;;;;;;;;;;23.01;50.39;100849.66;4969994;28;4154;-71
2023/06/17 01:24:33;;;;;;;;;;;;;;;23.01;50.70;100855.44;4982259;28;4189;-71
2023/06/17 01:27:02;;;;;;;;;;;;;;;23.00;50.41;100851.81;4994055;28;4211;-71
2023/06/17 01:29:29;;;;;;;;;;;;;;;22.99;50.48;100847.44;4975534;28;4192;-71
2023/06/17 01:31:58;;;;;;;;;;;;;;;22.98;50.31;100848.81;4978860;28;4243;-71
2023/06/17 01:34:47;;;;;;;;;;;;;;;22.98;50.34;100848.09;4993190;28;3981;-71
2023/06/17 01:37:14;;;;;;;;;;;;;;;22.97;50.63;100838.66;4998219;28;4162;-71
2023/06/17 01:39:42;;;;;;;;;;;;;;;22.98;50.54;100839.44;4994945;28;4603;-71
2023/06/17 01:42:14;;;;;;;;;;;;;;;22.97;50.49;100847.34;4980844;28;4214;-71
2023/06/17 01:44:40;;;;;;;;;;;;;;;22.97;50.24;100843.72;4981565;28;4144;-71
2023/06/17 01:47:09;;;;;;;;;;;;;;;22.96;50.48;100833.59;4967879;28;4025;-71
2023/06/17 01:49:37;;;;;;;;;;;;;;;22.96;50.32;100842.97;4980537;28;4152;-71
2023/06/17 01:52:04;;;;;;;;;;;;;;;22.95;50.31;100841.50;4994341;28;4116;-71
2023/06/17 01:54:30;;;;;;;;;;;;;;;22.96;50.39;100845.13;4981616;28;4312;-71
2023/06/17 01:56:57;;;;;;;;;;;;;;;22.96;50.37;100848.75;4980472;28;4149;-71
2023/06/17 01:59:23;;;;;;;;;;;;;;;22.96;50.58;100848.03;4996611;28;4150;-71
2023/06/17 02:01:49;;;;;;;;;;;;;;;22.94;50.37;100833.50;4982130;28;4124;-71
2023/06/17 02:04:16;;;;;;;;;;;;;;;22.94;50.34;100837.13;4980562;28;4150;-71
2023/06/17 02:06:42;;;;;;;;;;;;;;;22.94;50.31;100842.91;4982693;28;4074;-71
2023/06/17 02:09:09;;;;;;;;;;;;;;;22.92;50.63;100831.28;4995204;28;4292;-71
2023/06/17 02:11:35;;;;;;;;;;;;;;;22.93;50.35;100820.47;4992859;28;4174;-71
2023/06/17 02:14:01;;;;;;;;;;;;;;;22.92;50.29;100825.50;4994362;28;4088;-71
2023/06/17 02:16:28;;;;;;;;;;;;;;;22.91;50.37;100826.94;4993792;28;4298;-71
2023/06/17 02:18:55;;;;;;;;;;;;;;;22.92;50.66;100822.63;4979164;28;4174;-71
2023/06/17 02:21:23;;;;;;;;;;;;;;;22.93;50.48;100832.00;4988195;28;4157;-71
2023/06/17 02:23:50;;;;;;;;;;;;;;;22.91;50.48;100826.94;4983344;28;4183;-71
2023/06/17 02:26:16;;;;;;;;;;;;;;;22.90;50.45;100822.53;4980616;28;4547;-71
2023/06/17 02:28:43;;;;;;;;;;;;;;;22.90;50.44;100825.44;4980754;28;4041;-71
2023/06/17 02:31:09;;;;;;;;;;;;;;;22.91;50.45;100829.06;4996664;28;4563;-71
2023/06/17 02:33:36;;;;;;;;;;;;;;;22.91;50.46;100826.94;4999265;28;4377;-71
2023/06/17 02:36:02;;;;;;;;;;;;;;;22.90;50.39;100819.66;4986305;28;4078;-71
2023/06/17 02:38:29;;;;;;;;;;;;;;;22.90;50.29;100819.66;4980815;28;4238;-71
2023/06/17 02:40:55;;;;;;;;;;;;;;;22.89;50.39;100826.13;4985660;28;4101;-71
2023/06/17 02:43:21;;;;;;;;;;;;;;;22.89;50.35;100826.84;4986764;28;4192;-71
2023/06/17 02:45:48;;;;;;;;;;;;;;;22.91;50.30;100829.06;4987263;28;4104;-71
2023/06/17 02:48:14;;;;;;;;;;;;;;;22.89;50.42;100829.72;4988591;28;4140;-71
2023/06/17 02:50:41;;;;;;;;;;;;;;;22.88;50.55;100831.13;4986710;28;4047;-71
2023/06/17 02:53:07;;;;;;;;;;;;;;;22.90;50.30;100833.34;4996853;28;5169;-71
2023/06/17 02:55:34;;;;;;;;;;;;;;;22.89;50.39;100838.41;5001378;28;4068;-71
2023/06/17 02:58:08;;;;;;;;;;;;;;;22.89;50.31;100834.78;4999106;28;4233;-71
2023/06/17 03:00:40;;;;;;;;;;;;;;;22.88;50.24;100828.25;4985415;28;4122;-71
2023/06/17 03:03:07;;;;;;;;;;;;;;;22.88;50.60;100831.13;4982289;28;4230;-71
2023/06/17 03:05:33;;;;;;;;;;;;;;;22.88;50.31;100831.13;4986781;28;4188;-71
2023/06/17 03:08:00;;;;;;;;;;;;;;;22.89;50.54;100826.13;4978272;28;4362;-71
2023/06/17 03:10:26;;;;;;;;;;;;;;;22.88;50.51;100825.34;4980145;28;4226;-71
2023/06/17 03:13:02;;;;;;;;;;;;;;;22.88;50.25;100831.13;5000287;28;4091;-71
2023/06/17 03:15:29;;;;;;;;;;;;;;;22.87;50.32;100828.94;4985000;28;4391;-71
2023/06/17 03:17:56;;;;;;;;;;;;;;;22.86;50.62;100819.53;4999338;28;4874;-71
2023/06/17 03:20:28;;;;;;;;;;;;;;;22.86;50.59;100822.41;4985050;28;4144;-71
2023/06/17 03:22:55;;;;;;;;;;;;;;;22.86;50.52;100831.09;4985989;28;4152;-71
2023/06/17 03:25:22;;;;;;;;;;;;;;;22.87;50.26;100823.16;4981226;28;4191;-71
2023/06/17 03:27:51;;;;;;;;;;;;;;;22.85;50.28;100820.91;4981861;28;4071;-71
2023/06/17 03:30:18;;;;;;;;;;;;;;;22.86;50.39;100828.19;4999537;28;4469;-71
2023/06/17 03:32:45;;;;;;;;;;;;;;;22.86;50.36;100828.19;4997733;28;4124;-72
2023/06/17 03:35:11;;;;;;;;;;;;;;;22.85;50.56;100820.91;5000877;28;4152;-71
2023/06/17 03:37:38;;;;;;;;;;;;;;;22.85;50.57;100818.03;4982405;28;4073;-72
2023/06/17 03:40:05;;;;;;;;;;;;;;;22.85;50.44;100820.91;4989768;28;5025;-71
2023/06/17 03:42:34;;;;;;;;;;;;;;;22.72;50.73;100822.66;4986374;28;4280;-71
2023/06/17 03:45:00;;;;;;;;;;;;;;;22.36;51.92;100822.03;4978618;28;4115;-71
2023/06/17 03:47:28;;;;;;;;;;;;;;;22.55;51.26;100829.97;4999160;28;4338;-71
2023/06/17 03:49:54;;;;;;;;;;;;;;;22.66;50.99;100827.47;4997575;28;4310;-71
2023/06/17 03:52:21;;;;;;;;;;;;;;;22.77;51.03;100821.38;4984994;28;4155;-71
2023/06/17 03:54:48;;;;;;;;;;;;;;;22.79;50.78;100833.00;4986394;28;4197;-71
2023/06/17 03:57:15;;;;;;;;;;;;;;;22.82;50.65;100825.16;4982974;28;4137;-71
2023/06/17 03:59:42;;;;;;;;;;;;;;;22.82;50.54;100836.72;4983559;28;4145;-71
2023/06/17 04:02:08;;;;;;;;;;;;;;;22.81;50.71;100826.53;4998310;28;4156;-71
2023/06/17 04:04:35;;;;;;;;;;;;;;;22.80;50.65;100840.25;4986135;28;3983;-71
2023/06/17 04:07:02;;;;;;;;;;;;;;;22.80;50.59;100837.38;4999851;28;4233;-72
2023/06/17 04:09:31;;;;;;;;;;;;;;;22.81;50.48;100838.09;4998951;28;4158;-71
2023/06/17 04:11:57;;;;;;;;;;;;;;;22.80;50.48;100830.84;4984306;28;4282;-71
2023/06/17 04:14:24;;;;;;;;;;;;;;;22.81;50.58;100832.31;4981370;28;4146;-71
2023/06/17 04:16:50;;;;;;;;;;;;;;;22.82;50.47;100838.84;5001343;28;4234;-71
2023/06/17 04:19:17;;;;;;;;;;;;;;;22.80;50.70;100839.50;4983561;28;4203;-71
2023/06/17 04:21:44;;;;;;;;;;;;;;;22.81;50.47;100843.88;4985490;28;4116;-71
2023/06/17 04:24:11;;;;;;;;;;;;;;;22.81;50.37;100838.09;4983771;28;4021;-71
2023/06/17 04:26:37;;;;;;;;;;;;;;;22.80;50.53;100836.63;4981599;28;4153;-71
2023/06/17 04:29:04;;;;;;;;;;;;;;;22.80;50.39;100836.63;4994877;28;4216;-71
2023/06/17 04:31:35;;;;;;;;;;;;;;;22.81;50.50;100838.09;5000183;28;3959;-71
2023/06/17 04:34:01;;;;;;;;;;;;;;;22.80;50.48;100845.28;4997737;28;4176;-72
2023/06/17 04:36:28;;;;;;;;;;;;;;;22.81;50.37;100849.66;4981618;28;4224;-72
2023/06/17 04:38:55;;;;;;;;;;;;;;;22.81;50.58;100855.41;4997584;28;4335;-72
2023/06/17 04:41:21;;;;;;;;;;;;;;;22.80;50.42;100854.69;4983275;28;4121;-71
2023/06/17 04:43:49;;;;;;;;;;;;;;;22.81;50.40;100852.53;4981007;28;4852;-71
2023/06/17 04:46:16;;;;;;;;;;;;;;;22.81;50.65;100846.75;4995878;28;3944;-71
2023/06/17 04:48:43;;;;;;;;;;;;;;;22.80;50.41;100848.91;4995845;28;4128;-71
2023/06/17 04:51:10;;;;;;;;;;;;;;;22.80;50.33;100856.84;4998433;28;4119;-71
2023/06/17 04:53:38;;;;;;;;;;;;;;;22.79;50.64;100840.91;4997262;28;4287;-71
2023/06/17 04:56:06;;;;;;;;;;;;;;;22.79;50.67;100846.69;4999206;28;4035;-71
2023/06/17 04:58:33;;;;;;;;;;;;;;;22.78;50.26;100845.94;4984537;28;4370;-71
2023/06/17 05:01:10;;;;;;;;;;;;;;;22.81;50.65;100849.66;4984526;28;4059;-71
2023/06/17 05:03:37;;;;;;;;;;;;;;;22.79;50.71;100864.75;4983213;28;4023;-71
2023/06/17 05:06:03;;;;;;;;;;;;;;;22.78;50.42;100865.41;4995628;28;4535;-71
2023/06/17 05:08:30;;;;;;;;;;;;;;;22.78;50.39;100854.59;4996406;28;4299;-71
2023/06/17 05:10:58;;;;;;;;;;;;;;;22.78;50.45;100857.50;4997069;28;4532;-71
2023/06/17 05:13:26;;;;;;;;;;;;;;;22.79;50.35;100855.34;4980874;28;4031;-70
2023/06/17 05:15:53;;;;;;;;;;;;;;;22.77;50.32;100861.06;4980460;28;4204;-70
2023/06/17 05:18:20;;;;;;;;;;;;;;;22.77;50.48;100855.28;4996860;28;4058;-71
2023/06/17 05:20:47;;;;;;;;;;;;;;;22.77;50.38;100856.03;4996264;28;4541;-70
2023/06/17 05:23:13;;;;;;;;;;;;;;;22.77;50.39;100856.03;4981030;28;4311;-70
2023/06/17 05:25:39;;;;;;;;;;;;;;;22.77;50.39;100864.69;4995663;28;4306;-70
2023/06/17 05:28:07;;;;;;;;;;;;;;;22.78;50.67;100859.66;4995712;28;4161;-70
2023/06/17 05:30:34;;;;;;;;;;;;;;;22.76;50.39;100848.75;4978379;28;3978;-71
2023/06/17 05:33:03;;;;;;;;;;;;;;;22.77;50.38;100861.06;4995743;28;4113;-70
2023/06/17 05:35:29;;;;;;;;;;;;;;;22.76;50.46;100850.91;4978869;28;4527;-70
2023/06/17 05:37:57;;;;;;;;;;;;;;;22.76;50.44;100857.41;4979012;28;4066;-70
2023/06/17 05:40:24;;;;;;;;;;;;;;;22.75;50.53;100864.63;4978045;28;4022;-70
2023/06/17 05:42:50;;;;;;;;;;;;;;;22.76;50.45;100859.56;4982472;28;4181;-70
2023/06/17 05:45:19;;;;;;;;;;;;;;;22.76;50.45;100859.56;4996005;28;4126;-70
2023/06/17 05:47:46;;;;;;;;;;;;;;;22.77;50.36;100869.72;4993400;28;4386;-70
2023/06/17 05:50:13;;;;;;;;;;;;;;;22.76;50.38;100874.00;4979118;28;4092;-71
2023/06/17 05:52:41;;;;;;;;;;;;;;;22.77;50.60;100872.63;4998542;28;4284;-71
2023/06/17 05:55:09;;;;;;;;;;;;;;;22.76;50.66;100874.75;4980147;28;5313;-70
2023/06/17 05:57:36;;;;;;;;;;;;;;;22.76;50.47;100871.13;4991055;28;4081;-70
2023/06/17 06:00:03;;;;;;;;;;;;;;;22.75;50.44;100870.38;4985448;28;4205;-70
2023/06/17 06:02:38;;;;;;;;;;;;;;;22.76;50.33;100877.63;4977812;28;4252;-70
2023/06/17 06:05:05;;;;;;;;;;;;;;;22.76;50.71;100880.50;4978654;28;4129;-71
2023/06/17 06:07:32;;;;;;;;;;;;;;;22.76;50.36;100876.88;4978030;28;4078;-70
2023/06/17 06:09:59;;;;;;;;;;;;;;;22.77;50.40;100884.16;4981875;28;4256;-70
2023/06/17 06:12:27;;;;;;;;;;;;;;;22.76;50.58;100886.28;4992649;28;4061;-70
2023/06/17 06:14:54;;;;;;;;;;;;;;;22.75;50.42;100879.03;4995356;28;4141;-70
2023/06/17 06:17:20;;;;;;;;;;;;;;;22.75;50.73;100884.81;4981467;28;4374;-70
2023/06/17 06:19:47;;;;;;;;;;;;;;;22.75;50.44;100887.69;4981959;28;4194;-70
2023/06/17 06:22:13;;;;;;;;;;;;;;;22.75;50.62;100884.09;4994894;28;4017;-70
2023/06/17 06:24:40;;;;;;;;;;;;;;;22.75;50.53;100889.84;4995915;28;4151;-70
2023/06/17 06:27:07;;;;;;;;;;;;;;;22.74;50.48;100886.22;4995848;28;4215;-70
2023/06/17 06:29:33;;;;;;;;;;;;;;;22.75;50.45;100887.69;4979222;28;4070;-70
2023/06/17 06:32:00;;;;;;;;;;;;;;;22.76;50.41;100891.31;4979194;28;4711;-70
2023/06/17 06:34:26;;;;;;;;;;;;;;;22.75;50.48;100895.63;4995058;28;4042;-70
2023/06/17 06:36:55;;;;;;;;;;;;;;;22.74;50.46;100897.03;4979868;28;4216;-70
2023/06/17 06:39:21;;;;;;;;;;;;;;;22.75;50.47;100899.25;4983106;28;4097;-70
2023/06/17 06:41:48;;;;;;;;;;;;;;;22.75;50.80;100893.47;4995858;28;4158;-71
2023/06/17 06:44:32;;;;;;;;;;;;;;;22.74;50.49;100897.75;4984841;28;4335;-70
2023/06/17 06:46:59;;;;;;;;;;;;;;;22.75;50.61;100892.75;4996386;28;4213;-70
2023/06/17 06:49:26;;;;;;;;;;;;;;;22.75;50.47;100907.19;4979661;28;4065;-71
2023/06/17 06:51:52;;;;;;;;;;;;;;;22.75;50.64;100901.41;4997328;28;4191;-70
2023/06/17 06:54:20;;;;;;;;;;;;;;;22.76;50.38;100900.72;4995396;28;4238;-71
2023/06/17 06:56:47;;;;;;;;;;;;;;;22.79;50.52;100899.41;4982046;28;4123;-71
2023/06/17 06:59:13;;;;;;;;;;;;;;;22.63;51.31;100898.81;4982451;28;4074;-75
2023/06/17 07:01:39;;;;;;;;;;;;;;;22.13;55.80;100901.19;4980644;28;4195;-75
2023/06/17 07:04:06;;;;;;;;;;;;;;;21.85;57.47;100906.53;4994129;28;4183;-75
2023/06/17 07:06:33;;;;;;;;;;;;;;;21.59;58.53;100909.78;4994086;28;4234;-72
2023/06/17 07:09:02;;;;;;;;;;;;;;;21.60;59.01;100904.78;4996489;28;4141;-72
2023/06/17 07:11:29;;;;;;;;;;;;;;;21.89;58.40;100913.19;4996707;28;4128;-73
2023/06/17 07:13:56;;;;;;;;;;;;;;;22.09;57.46;100906.78;4978298;28;4185;-73
2023/06/17 07:16:22;;;;;;;;;;;;;;;22.04;57.91;100905.16;4997361;28;4380;-68
2023/06/17 07:18:49;;;;;;;;;;;;;;;22.07;57.56;100907.44;4995044;28;4063;-69
2023/06/17 07:21:15;;;;;;;;;;;;;;;22.06;57.85;100903.06;4982857;28;4209;-69
2023/06/17 07:23:42;;;;;;;;;;;;;;;22.08;57.86;100906.03;5001123;28;4171;-69
2023/06/17 07:26:09;;;;;;;;;;;;;;;22.12;57.74;100903.31;4982216;28;4247;-68
2023/06/17 07:28:36;;;;;;;;;;;;;;;22.14;57.91;100914.19;4982981;28;4302;-68
2023/06/17 07:31:02;;;;;;;;;;;;;;;22.13;57.71;100906.94;4997438;28;5268;-68
2023/06/17 07:33:30;;;;;;;;;;;;;;;22.10;57.86;100906.09;4986930;28;4015;-68
2023/06/17 07:35:56;;;;;;;;;;;;;;;22.09;57.98;100907.50;4984159;28;4206;-68
2023/06/17 07:38:24;;;;;;;;;;;;;;;22.14;58.07;100905.53;4983121;28;4185;-68
2023/06/17 07:40:51;;;;;;;;;;;;;;;22.11;58.14;100901.09;4981269;28;4346;-67
2023/06/17 07:43:17;;;;;;;;;;;;;;;22.08;57.96;100906.03;4984582;28;4008;-67
2023/06/17 07:45:43;;;;;;;;;;;;;;;22.10;58.39;100906.09;4989537;28;4318;-69
2023/06/17 07:48:10;;;;;;;;;;;;;;;22.09;58.39;100907.50;4983823;28;4826;-68
2023/06/17 07:50:36;;;;;;;;;;;;;;;22.11;58.38;100909.75;4982283;28;4085;-71
2023/06/17 07:53:03;;;;;;;;;;;;;;;21.84;59.04;100905.06;4980919;28;4152;-67
2023/06/17 07:55:30;;;;;;;;;;;;;;;21.82;59.58;100902.81;4987347;28;4441;-68
2023/06/17 07:57:56;;;;;;;;;;;;;;;21.98;59.07;100911.38;4984578;28;4087;-67
2023/06/17 08:00:22;;;;;;;;;;;;;;;22.06;58.78;100905.19;4981775;28;3989;-68
2023/06/17 08:02:49;;;;;;;;;;;;;;;22.08;58.47;100905.28;4978687;28;4101;-67
2023/06/17 08:05:16;;;;;;;;;;;;;;;22.12;58.49;100902.56;4982459;28;4066;-67
2023/06/17 08:07:42;;;;;;;;;;;;;;;22.12;58.75;100894.66;4985372;28;4099;-68
2023/06/17 08:10:09;;;;;;;;;;;;;;;22.10;58.40;100906.09;4982598;28;4019;-67
2023/06/17 08:12:35;;;;;;;;;;;;;;;22.10;58.43;100896.72;4984299;28;4113;-68
2023/06/17 08:15:02;;;;;;;;;;;;;;;22.15;58.19;100887.56;4984843;28;4340;-68
2023/06/17 08:17:28;;;;;;;;;;;;;;;22.16;57.78;100888.31;4985376;28;4039;-68
2023/06/17 08:19:55;;;;;;;;;;;;;;;22.10;57.72;100894.56;4983246;28;4325;-68
2023/06/17 08:22:22;;;;;;;;;;;;;;;22.12;57.59;100893.91;5002310;28;4215;-68
2023/06/17 08:24:48;;;;;;;;;;;;;;;22.14;57.78;100894.00;4980335;28;4056;-67
2023/06/17 08:27:14;;;;;;;;;;;;;;;22.10;57.74;100894.56;4970166;28;5205;-67
2023/06/17 08:29:41;;;;;;;;;;;;;;;21.99;58.32;100891.94;4984688;28;4158;-66
2023/06/17 08:32:08;;;;;;;;;;;;;;;22.05;58.33;100895.06;4983342;28;4319;-67
2023/06/17 08:34:35;;;;;;;;;;;;;;;22.12;58.09;100899.69;4982196;28;4080;-67
2023/06/17 08:37:04;;;;;;;;;;;;;;;22.10;58.28;100897.44;4991275;28;4319;-68
2023/06/17 08:39:31;;;;;;;;;;;;;;;22.20;58.22;100890.63;4979054;28;4240;-67
2023/06/17 08:41:57;;;;;;;;;;;;;;;21.61;60.38;100888.97;4983576;28;4178;-64
2023/06/17 08:44:24;;;;;;;;;;;;;;;20.30;66.76;100901.16;4983675;28;4142;-63
2023/06/17 08:46:53;;;;;;;;;;;;;;;20.59;64.62;100902.50;4982067;28;4241;-67
2023/06/17 08:49:21;;;;;;;;;;;;;;;21.58;61.43;100902.56;4997282;28;4107;-68
2023/06/17 08:51:50;;;;;;;;;;;;;;;21.93;59.89;100903.97;4984746;28;4193;-69
2023/06/17 08:54:17;;;;;;;;;;;;;;;22.10;59.27;100897.44;4983538;28;4165;-69
2023/06/17 08:56:43;;;;;;;;;;;;;;;22.18;58.97;100908.59;4980548;28;4210;-67
2023/06/17 08:59:09;;;;;;;;;;;;;;;22.07;58.90;100904.53;4976879;28;4247;-68
2023/06/17 09:01:36;;;;;;;;;;;;;;;22.15;58.69;100902.00;4983741;28;4233;-67
2023/06/17 09:04:03;;;;;;;;;;;;;;;22.29;57.96;100901.09;4982858;28;4120;-68
2023/06/17 09:06:29;;;;;;;;;;;;;;;22.30;58.88;100911.22;4978922;28;4185;-68
2023/06/17 09:08:56;;;;;;;;;;;;;;;22.08;59.13;100911.81;4983593;28;4626;-68
2023/06/17 09:11:30;;;;;;;;;;;;;;;22.04;59.44;100905.88;4980851;28;4045;-69
2023/06/17 09:13:57;;;;;;;;;;;;;;;21.75;61.10;100906.84;4983779;28;4137;-64
2023/06/17 09:16:27;;;;;;;;;;;;;;;20.54;63.80;100912.31;4990428;28;4274;-65
2023/06/17 09:18:54;;;;;;;;;;;;;;;20.31;65.40;100914.13;4994957;28;4183;-63
2023/06/17 09:21:21;;;;;;;;;;;;;;;19.77;65.23;100912.97;4977401;28;4165;-62
2023/06/17 09:23:54;;;;;;;;;;;;;;;19.49;66.16;100915.88;4981837;28;4027;-66
2023/06/17 09:26:22;;;;;;;;;;;;;;;19.92;65.36;100915.16;4978386;28;4145;-64
2023/06/17 09:28:48;;;;;;;;;;;;;;;20.71;62.88;100920.34;4984213;28;4334;-64
2023/06/17 09:31:14;;;;;;;;;;;;;;;21.45;60.42;100912.81;4981497;28;4035;-65
2023/06/17 09:33:43;;;;;;;;;;;;;;;21.77;59.16;100912.72;4979046;28;4129;-65
2023/06/17 09:36:09;;;;;;;;;;;;;;;21.96;59.12;100914.19;4980876;28;4151;-65
2023/06/17 09:38:35;;;;;;;;;;;;;;;20.80;62.28;100916.44;4984354;28;4304;-62
2023/06/17 09:41:02;;;;;;;;;;;;;;;20.78;63.06;100901.97;4978745;28;4161;-62
2023/06/17 09:43:28;;;;;;;;;;;;;;;20.51;63.87;100914.34;4983761;28;4129;-63
2023/06/17 09:46:01;;;;;;;;;;;;;;;20.83;63.79;100905.75;4984775;28;4056;-62
2023/06/17 09:48:31;;;;;;;;;;;;;;;20.86;63.44;100908.06;4982315;28;4111;-63
2023/06/17 09:50:57;;;;;;;;;;;;;;;20.97;63.05;100903.50;4981901;28;4420;-63
2023/06/17 09:53:29;;;;;;;;;;;;;;;20.89;63.02;100900.25;4982478;28;3986;-62
2023/06/17 09:55:57;;;;;;;;;;;;;;;21.09;62.14;100906.19;4983612;28;4167;-63
2023/06/17 09:58:28;;;;;;;;;;;;;;;20.81;63.50;100905.66;4981578;28;4176;-62
2023/06/17 10:00:57;;;;;;;;;;;;;;;20.67;62.92;100897.13;4983697;28;4364;-63
2023/06/17 10:03:24;;;;;;;;;;;;;;;20.57;62.87;100902.41;4979705;28;4069;-62
2023/06/17 10:05:54;;;;;;;;;;;;;;;20.55;61.77;100893.66;4981206;28;4150;-63
2023/06/17 10:08:21;;;;;;;;;;;;;;;21.00;62.66;100892.81;4982482;28;4213;-62
2023/06/17 10:10:48;;;;;;;;;;;;;;;21.14;61.32;100896.31;4985195;28;4333;-62
2023/06/17 10:13:14;;;;;;;;;;;;;;;20.85;61.03;100885.72;4997318;28;4308;-61
2023/06/17 10:15:40;;;;;;;;;;;;;;;20.86;61.76;100890.78;4996334;28;4094;-61
2023/06/17 10:18:08;;;;;;;;;;;;;;;20.83;61.77;100892.09;4984853;28;4127;-61
2023/06/17 10:20:35;;;;;;;;;;;;;;;20.86;61.99;100884.31;4983507;28;4609;-61
2023/06/17 10:23:02;;;;;;;;;;;;;;;20.82;61.47;100887.75;4981088;28;4177;-61
2023/06/17 10:25:28;;;;;;;;;;;;;;;21.06;60.68;100873.69;4997861;28;4103;-64
2023/06/17 10:27:55;;;;;;;;;;;;;;;20.74;61.95;100889.53;4983876;28;4159;-61
2023/06/17 10:30:27;;;;;;;;;;;;;;;20.79;62.65;100883.28;4984287;28;4143;-60
2023/06/17 10:32:57;;;;;;;;;;;;;;;21.06;61.44;100884.47;4981367;28;4419;-61
2023/06/17 10:35:24;;;;;;;;;;;;;;;21.32;61.86;100876.94;4986474;28;4018;-61
2023/06/17 10:37:50;;;;;;;;;;;;;;;21.36;60.59;100876.41;4992571;28;3979;-61
2023/06/17 10:40:30;;;;;;;;;;;;;;;21.24;60.39;100867.97;4984615;28;4070;-62
2023/06/17 10:42:58;;;;;;;;;;;;;;;21.43;59.76;100874.53;4979709;28;4171;-63
2023/06/17 10:45:25;;;;;;;;;;;;;;;21.75;57.88;100864.34;4982446;28;4017;-63
2023/06/17 10:47:51;;;;;;;;;;;;;;;21.66;58.09;100867.56;4980611;28;4174;-63
2023/06/17 10:50:20;;;;;;;;;;;;;;;21.53;57.49;100864.19;4985428;28;4284;-63
2023/06/17 10:52:47;;;;;;;;;;;;;;;21.64;58.09;100871.09;4983377;28;4268;-63
2023/06/17 10:55:13;;;;;;;;;;;;;;;21.88;57.41;100871.38;4979643;28;3985;-64
2023/06/17 10:57:39;;;;;;;;;;;;;;;22.10;56.47;100862.84;4986375;28;4047;-61
2023/06/17 11:00:08;;;;;;;;;;;;;;;22.24;56.71;100859.81;4985895;28;4209;-63
2023/06/17 11:02:36;;;;;;;;;;;;;;;22.47;55.87;100858.53;4983082;28;5067;-65
2023/06/17 11:05:05;;;;;;;;;;;;;;;22.38;56.06;100856.75;4983601;28;4158;-68
2023/06/17 11:07:32;;;;;;;;;;;;;;;22.29;56.51;100849.19;4982793;28;4504;-67
2023/06/17 11:10:00;;;;;;;;;;;;;;;22.24;56.47;100848.28;4987031;28;4137;-68
2023/06/17 11:12:26;;;;;;;;;;;;;;;22.26;56.69;100862.03;4989791;28;4182;-68
2023/06/17 11:14:54;;;;;;;;;;;;;;;22.25;56.59;100849.75;4986640;28;4160;-67
2023/06/17 11:17:21;;;;;;;;;;;;;;;22.30;56.51;100859.31;4985928;28;4449;-68
2023/06/17 11:19:47;;;;;;;;;;;;;;;22.31;56.36;100869.44;4982488;28;4552;-67
2023/06/17 11:22:14;;;;;;;;;;;;;;;22.30;56.88;100879.50;4983533;28;4298;-68
2023/06/17 11:24:42;;;;;;;;;;;;;;;22.30;57.12;100891.03;4982981;28;4171;-69
2023/06/17 11:27:10;;;;;;;;;;;;;;;22.25;57.20;100903.81;4981940;28;4043;-69
2023/06/17 11:29:39;;;;;;;;;;;;;;;22.22;57.62;100919.56;4999348;28;4141;-70
2023/06/17 11:32:06;;;;;;;;;;;;;;;22.26;57.04;100913.94;4986218;28;4293;-69
2023/06/17 11:34:32;;;;;;;;;;;;;;;22.32;56.97;100922.84;4989733;28;5337;-69
2023/06/17 11:37:00;;;;;;;;;;;;;;;22.34;56.89;100923.66;4990921;28;4046;-70
2023/06/17 11:39:26;;;;;;;;;;;;;;;22.35;56.65;100945.34;4991551;28;4189;-69
2023/06/17 11:41:59;;;;;;;;;;;;;;;22.36;56.31;100935.28;4988203;28;4171;-69
2023/06/17 11:44:26;;;;;;;;;;;;;;;22.36;56.10;100929.53;4989913;28;4020;-69
2023/06/17 11:46:56;;;;;;;;;;;;;;;22.38;56.06;100925.97;4986742;28;4336;-68
2023/06/17 11:49:28;;;;;;;;;;;;;;;22.39;56.21;100921.69;4987873;28;4065;-69
2023/06/17 11:51:55;;;;;;;;;;;;;;;22.39;55.92;100921.69;4990823;28;4178;-69
2023/06/17 11:54:25;;;;;;;;;;;;;;;22.39;56.09;100927.47;5009618;28;4172;-69
2023/06/17 11:56:51;;;;;;;;;;;;;;;22.41;55.80;100929.69;4990233;28;4210;-69
2023/06/17 11:59:21;;;;;;;;;;;;;;;22.39;55.83;100930.34;4992846;28;4191;-69
2023/06/17 12:01:47;;;;;;;;;;;;;;;22.40;55.65;100934.69;4988109;28;4218;-69
2023/06/17 12:04:13;;;;;;;;;;;;;;;22.39;56.01;100930.34;4984593;28;3974;-69
2023/06/17 12:06:40;;;;;;;;;;;;;;;22.40;55.84;100928.94;4985919;28;4142;-69
2023/06/17 12:09:08;;;;;;;;;;;;;;;22.41;56.00;100923.91;4987104;28;4144;-69
2023/06/17 12:11:37;;;;;;;;;;;;;;;22.41;55.57;100918.88;4991069;28;4322;-69
2023/06/17 12:14:07;;;;;;;;;;;;;;;22.41;55.55;100910.22;4985231;28;4121;-69
2023/06/17 12:16:34;;;;;;;;;;;;;;;22.43;55.96;100912.47;4987014;28;4153;-68
2023/06/17 12:19:01;;;;;;;;;;;;;;;22.41;55.65;100907.34;4988658;28;4315;-69
2023/06/17 12:21:28;;;;;;;;;;;;;;;22.42;55.96;100903.03;4985926;28;5056;-69
2023/06/17 12:23:54;;;;;;;;;;;;;;;22.42;55.70;100903.03;4987498;28;4140;-69
2023/06/17 12:26:23;;;;;;;;;;;;;;;22.43;55.56;100907.44;4986771;28;4140;-69
2023/06/17 12:28:50;;;;;;;;;;;;;;;22.43;55.58;100898.78;4989524;28;4139;-68
2023/06/17 12:31:17;;;;;;;;;;;;;;;22.44;55.55;100911.78;4986705;28;4084;-69
2023/06/17 12:33:45;;;;;;;;;;;;;;;22.44;55.69;100905.28;4991588;28;4161;-69
2023/06/17 12:36:12;;;;;;;;;;;;;;;22.44;55.76;100911.78;4987326;28;4093;-69
2023/06/17 12:38:39;;;;;;;;;;;;;;;22.44;55.50;100914.66;5001178;28;4056;-69
2023/06/17 12:41:05;;;;;;;;;;;;;;;22.46;55.43;100911.84;4987319;28;4018;-69
2023/06/17 12:43:32;;;;;;;;;;;;;;;22.46;55.48;100914.75;4990915;28;4929;-69
2023/06/17 12:45:58;;;;;;;;;;;;;;;22.46;55.27;100908.97;4983266;28;4122;-68
2023/06/17 12:48:25;;;;;;;;;;;;;;;22.46;55.22;100896.69;4989657;28;4202;-69